OAL114 LICA-LGAV
Flight info
| Callsign | OAL114 |
|---|---|
| Flight time | N/A |
| Altitude | FL350 |
| Route | ARBUM CRN M601 RUTOM N604 ARA B34 NEMES |
| Aircraft | B738/M-SDE3FGHIRWY/LB1 |
Departure
| Time | 2026-04-26 20:22 |
|---|---|
| Airport | Lamezia Terme Sant'Eufemia International Airport (LICA) |
Arrival
| Time | N/A |
|---|---|
| Airport | Athens Eleftherios Venizelos International Airport (LGAV) |
| Time | Latitude | Longitude | Altitude | Speed | Heading |
|---|---|---|---|---|---|
| 2026-04-26 20:12 | 38.90862 | 16.24524 | 34 ft | 0 kts | 45° |
| 2026-04-26 20:15 | 38.90859 | 16.24521 | 34 ft | 2 kts | 45° |
| 2026-04-26 20:15 | 38.90858 | 16.24519 | 34 ft | 0 kts | 45° |
| 2026-04-26 20:17 | 38.90857 | 16.24532 | 34 ft | 4 kts | 109° |
| 2026-04-26 20:17 | 38.90811 | 16.24556 | 34 ft | 9 kts | 160° |
| 2026-04-26 20:17 | 38.90768 | 16.24578 | 35 ft | 11 kts | 151° |
| 2026-04-26 20:18 | 38.90708 | 16.24700 | 36 ft | 15 kts | 99° |
| 2026-04-26 20:18 | 38.90693 | 16.24842 | 35 ft | 18 kts | 97° |
| 2026-04-26 20:18 | 38.90676 | 16.25007 | 38 ft | 19 kts | 97° |
| 2026-04-26 20:18 | 38.90655 | 16.25169 | 39 ft | 18 kts | 99° |
| 2026-04-26 20:19 | 38.90636 | 16.25327 | 40 ft | 18 kts | 98° |
| 2026-04-26 20:19 | 38.90618 | 16.25478 | 41 ft | 17 kts | 98° |
| 2026-04-26 20:19 | 38.90602 | 16.25625 | 42 ft | 16 kts | 98° |
| 2026-04-26 20:19 | 38.90585 | 16.25765 | 43 ft | 16 kts | 98° |
| 2026-04-26 20:20 | 38.90569 | 16.25900 | 44 ft | 15 kts | 98° |
| 2026-04-26 20:20 | 38.90554 | 16.26030 | 45 ft | 14 kts | 98° |
| 2026-04-26 20:20 | 38.90530 | 16.26151 | 44 ft | 14 kts | 125° |
| 2026-04-26 20:20 | 38.90454 | 16.26219 | 46 ft | 13 kts | 152° |
| 2026-04-26 20:21 | 38.90372 | 16.26263 | 47 ft | 13 kts | 175° |
| 2026-04-26 20:21 | 38.90313 | 16.26199 | 48 ft | 12 kts | 268° |
| 2026-04-26 20:21 | 38.90328 | 16.26056 | 45 ft | 28 kts | 278° |
| 2026-04-26 20:21 | 38.90391 | 16.25520 | 42 ft | 93 kts | 278° |
| 2026-04-26 20:22 | 38.90516 | 16.24448 | 36 ft | 148 kts | 278° |
| 2026-04-26 20:22 | 38.90699 | 16.22992 | 255 ft | 172 kts | 279° |
| 2026-04-26 20:22 | 38.90909 | 16.21544 | 1061 ft | 167 kts | 279° |
| 2026-04-26 20:22 | 38.91083 | 16.20033 | 1609 ft | 175 kts | 278° |
| 2026-04-26 20:23 | 38.91258 | 16.18411 | 2004 ft | 197 kts | 278° |
| 2026-04-26 20:23 | 38.91460 | 16.16567 | 2225 ft | 220 kts | 278° |
| 2026-04-26 20:23 | 38.91684 | 16.14525 | 2411 ft | 242 kts | 278° |
| 2026-04-26 20:23 | 38.92025 | 16.12338 | 2793 ft | 257 kts | 294° |
| 2026-04-26 20:24 | 38.93053 | 16.10480 | 3562 ft | 256 kts | 311° |
| 2026-04-26 20:24 | 38.94229 | 16.08738 | 4293 ft | 261 kts | 311° |
| 2026-04-26 20:24 | 38.95417 | 16.06968 | 5055 ft | 263 kts | 311° |
| 2026-04-26 20:24 | 38.96613 | 16.05177 | 5779 ft | 267 kts | 311° |
| 2026-04-26 20:25 | 38.97822 | 16.03356 | 6486 ft | 270 kts | 311° |
| 2026-04-26 20:25 | 38.98637 | 16.02125 | 6930 ft | 273 kts | 311° |
| 2026-04-26 20:25 | 39.00283 | 15.99631 | 7863 ft | 276 kts | 311° |
| 2026-04-26 20:25 | 39.01529 | 15.97739 | 8533 ft | 280 kts | 310° |
| 2026-04-26 20:26 | 39.02790 | 15.95823 | 9234 ft | 283 kts | 311° |
| 2026-04-26 20:26 | 39.04258 | 15.94156 | 9904 ft | 285 kts | 332° |
| 2026-04-26 20:26 | 39.06063 | 15.93081 | 10504 ft | 291 kts | 336° |
| 2026-04-26 20:26 | 39.07977 | 15.91988 | 10652 ft | 312 kts | 336° |
| 2026-04-26 20:27 | 39.10023 | 15.90815 | 10817 ft | 333 kts | 335° |
| 2026-04-26 20:27 | 39.12184 | 15.89560 | 11068 ft | 348 kts | 335° |
| 2026-04-26 20:27 | 39.14407 | 15.88258 | 11566 ft | 355 kts | 335° |
| 2026-04-26 20:27 | 39.16744 | 15.87238 | 12156 ft | 359 kts | 352° |
| 2026-04-26 20:28 | 39.19228 | 15.87431 | 12821 ft | 363 kts | 14° |
| 2026-04-26 20:28 | 39.21521 | 15.88805 | 13444 ft | 369 kts | 36° |
| 2026-04-26 20:28 | 39.23296 | 15.91198 | 14040 ft | 375 kts | 58° |
| 2026-04-26 20:28 | 39.24253 | 15.94320 | 14598 ft | 379 kts | 81° |
| 2026-04-26 20:29 | 39.24237 | 15.97705 | 15219 ft | 381 kts | 102° |
| 2026-04-26 20:29 | 39.23581 | 16.01009 | 15878 ft | 383 kts | 106° |
| 2026-04-26 20:29 | 39.22844 | 16.04321 | 16456 ft | 387 kts | 107° |
| 2026-04-26 20:29 | 39.22078 | 16.07663 | 17040 ft | 391 kts | 107° |
| 2026-04-26 20:30 | 39.21307 | 16.11038 | 17634 ft | 395 kts | 107° |
| 2026-04-26 20:30 | 39.20538 | 16.14445 | 18238 ft | 398 kts | 107° |
| 2026-04-26 20:30 | 39.19770 | 16.17886 | 18777 ft | 402 kts | 107° |
| 2026-04-26 20:30 | 39.19002 | 16.21357 | 19283 ft | 405 kts | 106° |
| 2026-04-26 20:31 | 39.18232 | 16.24854 | 19804 ft | 408 kts | 106° |
| 2026-04-26 20:31 | 39.17458 | 16.28379 | 20294 ft | 411 kts | 106° |
| 2026-04-26 20:31 | 39.16677 | 16.31931 | 20793 ft | 414 kts | 106° |
| 2026-04-26 20:31 | 39.15890 | 16.35509 | 21287 ft | 418 kts | 106° |
| 2026-04-26 20:32 | 39.15096 | 16.39115 | 21748 ft | 421 kts | 106° |
| 2026-04-26 20:32 | 39.14294 | 16.42750 | 22225 ft | 424 kts | 106° |
| 2026-04-26 20:32 | 39.13485 | 16.46408 | 22699 ft | 427 kts | 106° |
| 2026-04-26 20:32 | 39.12670 | 16.50090 | 23168 ft | 430 kts | 106° |
| 2026-04-26 20:33 | 39.11848 | 16.53796 | 23604 ft | 433 kts | 106° |
| 2026-04-26 20:33 | 39.11018 | 16.57529 | 23998 ft | 436 kts | 106° |
| 2026-04-26 20:33 | 39.10182 | 16.61284 | 24386 ft | 438 kts | 106° |
| 2026-04-26 20:33 | 39.09342 | 16.65053 | 24767 ft | 440 kts | 106° |
| 2026-04-26 20:34 | 39.08497 | 16.68838 | 25140 ft | 442 kts | 106° |
| 2026-04-26 20:34 | 39.07646 | 16.72642 | 25493 ft | 445 kts | 106° |
| 2026-04-26 20:34 | 39.06787 | 16.76470 | 25818 ft | 448 kts | 106° |
| 2026-04-26 20:34 | 39.05923 | 16.80320 | 26159 ft | 450 kts | 106° |
| 2026-04-26 20:35 | 39.05055 | 16.84182 | 26527 ft | 451 kts | 106° |
| 2026-04-26 20:35 | 39.04182 | 16.88059 | 26863 ft | 453 kts | 106° |
| 2026-04-26 20:35 | 39.03303 | 16.91953 | 27194 ft | 455 kts | 106° |
| 2026-04-26 20:35 | 39.02419 | 16.95864 | 27534 ft | 457 kts | 106° |
| 2026-04-26 20:36 | 39.01531 | 16.99792 | 27848 ft | 459 kts | 106° |
| 2026-04-26 20:36 | 39.00637 | 17.03734 | 28168 ft | 461 kts | 106° |
| 2026-04-26 20:36 | 38.99738 | 17.07692 | 28471 ft | 463 kts | 106° |
| 2026-04-26 20:36 | 38.98819 | 17.11663 | 28761 ft | 466 kts | 107° |
| 2026-04-26 20:37 | 38.97870 | 17.15641 | 29051 ft | 467 kts | 107° |
| 2026-04-26 20:37 | 38.96907 | 17.19628 | 29355 ft | 469 kts | 107° |
| 2026-04-26 20:37 | 38.95938 | 17.23628 | 29643 ft | 471 kts | 107° |
| 2026-04-26 20:37 | 38.94966 | 17.27640 | 29940 ft | 472 kts | 107° |
| 2026-04-26 20:38 | 38.93996 | 17.31652 | 30312 ft | 471 kts | 107° |
| 2026-04-26 20:38 | 38.93031 | 17.35650 | 30671 ft | 469 kts | 107° |
| 2026-04-26 20:38 | 38.92067 | 17.39636 | 30980 ft | 468 kts | 107° |
| 2026-04-26 20:38 | 38.91102 | 17.43627 | 31222 ft | 470 kts | 107° |
| 2026-04-26 20:39 | 38.90133 | 17.47627 | 31464 ft | 471 kts | 107° |
| 2026-04-26 20:39 | 38.89162 | 17.51627 | 31764 ft | 470 kts | 107° |
| 2026-04-26 20:39 | 38.88191 | 17.55618 | 32083 ft | 469 kts | 107° |
| 2026-04-26 20:39 | 38.87221 | 17.59603 | 32367 ft | 469 kts | 107° |
| 2026-04-26 20:40 | 38.86248 | 17.63589 | 32620 ft | 469 kts | 107° |
| 2026-04-26 20:40 | 38.85275 | 17.67577 | 32893 ft | 469 kts | 107° |
| 2026-04-26 20:40 | 38.84300 | 17.71560 | 33181 ft | 469 kts | 107° |
| 2026-04-26 20:40 | 38.83324 | 17.75538 | 33459 ft | 469 kts | 107° |
| 2026-04-26 20:41 | 38.82347 | 17.79515 | 33721 ft | 468 kts | 107° |
| 2026-04-26 20:41 | 38.81369 | 17.83489 | 33991 ft | 468 kts | 107° |
| 2026-04-26 20:41 | 38.80392 | 17.87459 | 34235 ft | 468 kts | 107° |
| 2026-04-26 20:41 | 38.79413 | 17.91429 | 34437 ft | 468 kts | 107° |
| 2026-04-26 20:42 | 38.78432 | 17.95400 | 34635 ft | 468 kts | 108° |
| 2026-04-26 20:42 | 38.77450 | 17.99372 | 34842 ft | 468 kts | 108° |
| 2026-04-26 20:42 | 38.76467 | 18.03341 | 35052 ft | 468 kts | 108° |
| 2026-04-26 20:43 | 38.74488 | 18.11313 | 35122 ft | 472 kts | 108° |
| 2026-04-26 20:43 | 38.72505 | 18.19275 | 35117 ft | 468 kts | 108° |
| 2026-04-26 20:44 | 38.70522 | 18.27172 | 35119 ft | 465 kts | 108° |
| 2026-04-26 20:44 | 38.68528 | 18.35017 | 35125 ft | 463 kts | 108° |
| 2026-04-26 20:45 | 38.66534 | 18.42834 | 35138 ft | 463 kts | 108° |
| 2026-04-26 20:45 | 38.64540 | 18.50644 | 35124 ft | 463 kts | 108° |
| 2026-04-26 20:46 | 38.62537 | 18.58466 | 35123 ft | 464 kts | 108° |
| 2026-04-26 20:46 | 38.60523 | 18.66310 | 35123 ft | 466 kts | 108° |
| 2026-04-26 20:47 | 38.58495 | 18.74179 | 35121 ft | 468 kts | 108° |
| 2026-04-26 20:47 | 38.56455 | 18.82073 | 35123 ft | 469 kts | 108° |
| 2026-04-26 20:48 | 38.54405 | 18.89985 | 35123 ft | 471 kts | 108° |
| 2026-04-26 20:48 | 38.52345 | 18.97906 | 35121 ft | 471 kts | 108° |
| 2026-04-26 20:49 | 38.50690 | 19.05974 | 35130 ft | 471 kts | 101° |
| 2026-04-26 20:49 | 38.49466 | 19.14166 | 35119 ft | 471 kts | 101° |
| 2026-04-26 20:50 | 38.48246 | 19.22348 | 35119 ft | 470 kts | 101° |
| 2026-04-26 20:50 | 38.46972 | 19.30503 | 35120 ft | 469 kts | 101° |
| 2026-04-26 20:51 | 38.45670 | 19.38637 | 35119 ft | 469 kts | 102° |
| 2026-04-26 20:51 | 38.44361 | 19.46756 | 35116 ft | 468 kts | 102° |
| 2026-04-26 20:52 | 38.43050 | 19.54863 | 35117 ft | 467 kts | 102° |
| 2026-04-26 20:52 | 38.41735 | 19.62960 | 35117 ft | 467 kts | 102° |
| 2026-04-26 20:53 | 38.40416 | 19.71051 | 35114 ft | 467 kts | 102° |
| 2026-04-26 20:53 | 38.39092 | 19.79138 | 35115 ft | 467 kts | 102° |
| 2026-04-26 20:54 | 38.37761 | 19.87225 | 35117 ft | 467 kts | 102° |
| 2026-04-26 20:54 | 38.36424 | 19.95313 | 35119 ft | 468 kts | 102° |
| 2026-04-26 20:55 | 38.35080 | 20.03408 | 35119 ft | 468 kts | 102° |
| 2026-04-26 20:55 | 38.33729 | 20.11508 | 35118 ft | 469 kts | 102° |
| 2026-04-26 20:56 | 38.32373 | 20.19615 | 35113 ft | 469 kts | 102° |
| 2026-04-26 20:56 | 38.31027 | 20.27731 | 35111 ft | 470 kts | 101° |
| 2026-04-26 20:57 | 38.29957 | 20.35923 | 35118 ft | 470 kts | 99° |
| 2026-04-26 20:57 | 38.28973 | 20.44140 | 35125 ft | 471 kts | 99° |
| 2026-04-26 20:58 | 38.27949 | 20.52359 | 35127 ft | 471 kts | 100° |
| 2026-04-26 20:58 | 38.26892 | 20.60573 | 35113 ft | 471 kts | 100° |
| 2026-04-26 20:59 | 38.25821 | 20.68781 | 35124 ft | 471 kts | 100° |
| 2026-04-26 20:59 | 38.24745 | 20.76985 | 35109 ft | 471 kts | 100° |
| 2026-04-26 21:00 | 38.23666 | 20.85181 | 35106 ft | 471 kts | 100° |
| 2026-04-26 21:00 | 38.22583 | 20.93361 | 35115 ft | 470 kts | 100° |
| 2026-04-26 21:01 | 38.21495 | 21.01542 | 35119 ft | 470 kts | 100° |
| 2026-04-26 21:01 | 38.20400 | 21.09719 | 35109 ft | 470 kts | 100° |
| 2026-04-26 21:02 | 38.19300 | 21.17894 | 35102 ft | 470 kts | 101° |
| 2026-04-26 21:02 | 38.18195 | 21.26068 | 35106 ft | 470 kts | 101° |
| 2026-04-26 21:03 | 38.17086 | 21.34231 | 35060 ft | 463 kts | 101° |
| 2026-04-26 21:03 | 38.16545 | 21.38216 | 34753 ft | 455 kts | 101° |
| 2026-04-26 21:03 | 38.16000 | 21.42168 | 34046 ft | 457 kts | 101° |
| 2026-04-26 21:03 | 38.15439 | 21.46160 | 33167 ft | 461 kts | 101° |
| 2026-04-26 21:04 | 38.14855 | 21.50168 | 32390 ft | 463 kts | 102° |
| 2026-04-26 21:04 | 38.14237 | 21.54164 | 31828 ft | 460 kts | 102° |
| 2026-04-26 21:04 | 38.13585 | 21.58100 | 31502 ft | 452 kts | 103° |
| 2026-04-26 21:04 | 38.12897 | 21.61943 | 31242 ft | 443 kts | 104° |
| 2026-04-26 21:05 | 38.12168 | 21.65699 | 30890 ft | 436 kts | 105° |
| 2026-04-26 21:05 | 38.11379 | 21.69402 | 30369 ft | 435 kts | 107° |
| 2026-04-26 21:05 | 38.10517 | 21.73080 | 29688 ft | 436 kts | 108° |
| 2026-04-26 21:05 | 38.09577 | 21.76729 | 29086 ft | 435 kts | 110° |
| 2026-04-26 21:06 | 38.08564 | 21.80259 | 29192 ft | 410 kts | 112° |
| 2026-04-26 21:06 | 38.07569 | 21.83326 | 30641 ft | 341 kts | 115° |